Wichita, Kansas
Current Conditions -  °F | °C
As of 10:58 AM on Wednesday 26 Nov 2014 (Local Time) from KIAB Reporting Station
Clear Clear  
Wind Chill: 39°   Ceiling: Unl
Heat Index: 47°   Visibility: 10mi
Dew Point: 22°   Wind: 21mph
Humidity: 38%   Direction: 340°NNW
Pressure: 30.14"   Gusts: 31mph
Location:  37.69°N, 97.33°W
Report Text: KIAB 261658Z AUTO 34018G27KT 10SM CLR 08/M05 A3014 RMK AO2 PK WND 34034/05 SLP214 T00831054
Loading
Personal Weather Stations






























Interactive Weather Map New forecast layout! Learn more

10-Day Weather Forecast

Advertisements
Track Severe Weather on mobile